Time;durP1;ratioP1;P1;durP2;ratioP2;P2;SDS_P1;SDS_P2;PMS_P1;PMS_P2;Temp;Humidity;BMP_temperature;BMP_pressure;BME280_temperature;BME280_humidity;BME280_pressure;Samples;Min_cycle;Max_cycle;Signal;HPM_P1;HPM_P2
2023/12/17 00:00:40;;;;;;;;;;;19.80;60.00;;;;;;5056074;28;19920;-59
2023/12/17 00:03:05;;;;;;;;;;;19.80;59.90;;;;;;5073749;28;20280;-59
2023/12/17 00:05:31;;;;;;;;;;;19.80;59.90;;;;;;5055843;28;19940;-59
2023/12/17 00:07:56;;;;;;;;;;;19.80;59.90;;;;;;5055838;28;19924;-58
2023/12/17 00:10:22;;;;;;;;;;;19.80;59.90;;;;;;5074090;28;19928;-59
2023/12/17 00:12:47;;;;;;;;;;;19.70;59.90;;;;;;5055277;28;19931;-59
2023/12/17 00:15:13;;;;;;;;;;;19.70;59.80;;;;;;5055542;28;20368;-59
2023/12/17 00:17:38;;;;;;;;;;;19.70;59.80;;;;;;5055836;28;19931;-59
2023/12/17 00:20:04;;;;;;;;;;;19.70;59.80;;;;;;5073221;28;20364;-59
2023/12/17 00:22:29;;;;;;;;;;;19.70;59.80;;;;;;5056002;28;19931;-59
2023/12/17 00:24:55;;;;;;;;;;;19.70;59.80;;;;;;5055744;28;20031;-59
2023/12/17 00:27:20;;;;;;;;;;;19.70;59.80;;;;;;5071382;28;19926;-59
2023/12/17 00:29:46;;;;;;;;;;;19.70;59.80;;;;;;5055896;28;20019;-59
2023/12/17 00:32:11;;;;;;;;;;;19.60;59.70;;;;;;5073279;28;19940;-58
2023/12/17 00:34:37;;;;;;;;;;;19.60;59.70;;;;;;5055371;28;19928;-59
2023/12/17 00:37:02;;;;;;;;;;;19.60;59.70;;;;;;5073351;28;20423;-59
2023/12/17 00:39:28;;;;;;;;;;;19.60;59.70;;;;;;5073451;28;19920;-59
2023/12/17 00:41:53;;;;;;;;;;;19.60;59.60;;;;;;5072279;28;20380;-59
2023/12/17 00:44:19;;;;;;;;;;;19.60;59.60;;;;;;5056291;28;19924;-59
2023/12/17 00:46:44;;;;;;;;;;;19.60;59.60;;;;;;5073305;28;20257;-58
2023/12/17 00:49:10;;;;;;;;;;;19.60;59.60;;;;;;5054505;28;20292;-59
2023/12/17 00:51:35;;;;;;;;;;;19.60;59.60;;;;;;5055150;28;19925;-59
2023/12/17 00:54:01;;;;;;;;;;;19.60;59.60;;;;;;5073165;28;19928;-59
2023/12/17 00:56:26;;;;;;;;;;;19.60;59.60;;;;;;5072410;28;19928;-59
2023/12/17 00:58:52;;;;;;;;;;;19.60;59.60;;;;;;5055027;28;19970;-59
2023/12/17 01:01:17;;;;;;;;;;;19.50;59.50;;;;;;5055295;28;19963;-59
2023/12/17 01:03:43;;;;;;;;;;;19.50;59.50;;;;;;5072593;28;19924;-59
2023/12/17 01:06:08;;;;;;;;;;;19.50;59.50;;;;;;5055145;28;19928;-59
2023/12/17 01:08:34;;;;;;;;;;;19.50;59.50;;;;;;5073209;28;19924;-59
2023/12/17 01:10:59;;;;;;;;;;;19.50;60.20;;;;;;5054000;28;19924;-59
2023/12/17 01:13:25;;;;;;;;;;;19.50;59.50;;;;;;5073103;28;20265;-59
2023/12/17 01:15:50;;;;;;;;;;;19.50;59.50;;;;;;5072374;28;19932;-59
2023/12/17 01:18:16;;;;;;;;;;;19.50;59.50;;;;;;5072773;28;20022;-59
2023/12/17 01:20:41;;;;;;;;;;;19.50;59.50;;;;;;5055308;28;19928;-59
2023/12/17 01:23:06;;;;;;;;;;;19.50;59.50;;;;;;5071771;28;20709;-59
2023/12/17 01:25:32;;;;;;;;;;;19.50;59.50;;;;;;5073122;28;19928;-59
2023/12/17 01:27:58;;;;;;;;;;;19.50;59.40;;;;;;5072467;28;19924;-59
2023/12/17 01:30:23;;;;;;;;;;;19.50;59.40;;;;;;5072402;28;19925;-59
2023/12/17 01:32:48;;;;;;;;;;;19.50;59.40;;;;;;5072871;28;20440;-59
2023/12/17 01:35:14;;;;;;;;;;;19.40;59.30;;;;;;5072388;28;19931;-59
2023/12/17 01:37:39;;;;;;;;;;;19.40;59.30;;;;;;5072198;28;20019;-59
2023/12/17 01:40:05;;;;;;;;;;;19.40;59.40;;;;;;5075820;28;20407;-59
2023/12/17 01:42:31;;;;;;;;;;;19.40;59.30;;;;;;5076971;28;19932;-59
2023/12/17 01:44:56;;;;;;;;;;;19.40;59.30;;;;;;5041358;28;20380;-59
2023/12/17 01:47:22;;;;;;;;;;;19.40;59.30;;;;;;5053913;28;19947;-59
2023/12/17 01:49:47;;;;;;;;;;;19.40;59.30;;;;;;5038554;28;19929;-59
2023/12/17 01:52:13;;;;;;;;;;;19.40;59.30;;;;;;5055495;28;19948;-60
2023/12/17 01:54:39;;;;;;;;;;;19.40;59.20;;;;;;5023126;28;19968;-59
2023/12/17 01:57:05;;;;;;;;;;;19.40;59.30;;;;;;5056120;28;19932;-59
2023/12/17 01:59:31;;;;;;;;;;;19.40;59.30;;;;;;5040606;28;20405;-59
2023/12/17 02:01:57;;;;;;;;;;;19.40;59.20;;;;;;5058363;28;19963;-60
2023/12/17 02:04:22;;;;;;;;;;;19.40;59.20;;;;;;5057820;28;20013;-59
2023/12/17 02:06:48;;;;;;;;;;;19.40;59.20;;;;;;5075423;28;19925;-59
2023/12/17 02:09:13;;;;;;;;;;;19.30;59.20;;;;;;5076000;28;20284;-59
2023/12/17 02:11:39;;;;;;;;;;;19.30;59.20;;;;;;5058137;28;19968;-59
2023/12/17 02:14:04;;;;;;;;;;;19.30;59.20;;;;;;5057147;28;19928;-60
2023/12/17 02:16:30;;;;;;;;;;;19.30;59.20;;;;;;5075610;28;19924;-60
2023/12/17 02:18:58;;;;;;;;;;;19.30;59.10;;;;;;5075758;28;19924;-59
2023/12/17 02:21:23;;;;;;;;;;;19.30;59.20;;;;;;5074804;28;20341;-60
2023/12/17 02:23:49;;;;;;;;;;;19.30;59.20;;;;;;5076180;28;19934;-59
2023/12/17 02:26:16;;;;;;;;;;;19.30;59.10;;;;;;5056777;28;19976;-60
2023/12/17 02:28:41;;;;;;;;;;;19.30;59.10;;;;;;5075892;28;19924;-60
2023/12/17 02:31:06;;;;;;;;;;;19.30;59.20;;;;;;5075930;28;19931;-60
2023/12/17 02:33:32;;;;;;;;;;;19.30;59.20;;;;;;5056306;28;19928;-59
2023/12/17 02:35:58;;;;;;;;;;;19.30;59.20;;;;;;5057484;28;19948;-59
2023/12/17 02:38:23;;;;;;;;;;;19.30;59.10;;;;;;5057887;28;19924;-59
2023/12/17 02:40:49;;;;;;;;;;;19.30;59.10;;;;;;5074947;28;19969;-59
2023/12/17 02:43:14;;;;;;;;;;;19.20;59.10;;;;;;5057475;28;19925;-59
2023/12/17 02:45:40;;;;;;;;;;;19.20;59.10;;;;;;5057119;28;19931;-59
2023/12/17 02:48:05;;;;;;;;;;;19.20;59.10;;;;;;5056478;28;19920;-59
2023/12/17 02:50:30;;;;;;;;;;;19.20;59.10;;;;;;5056339;28;19931;-60
2023/12/17 02:52:56;;;;;;;;;;;19.30;59.20;;;;;;5057047;28;19928;-59
2023/12/17 02:55:21;;;;;;;;;;;19.20;59.10;;;;;;5074789;28;20388;-59
2023/12/17 02:57:47;;;;;;;;;;;19.20;59.10;;;;;;5075410;28;19924;-59
2023/12/17 03:00:13;;;;;;;;;;;19.20;59.10;;;;;;5055946;28;20015;-59
2023/12/17 03:02:39;;;;;;;;;;;19.20;59.10;;;;;;5035520;28;19925;-59
2023/12/17 03:05:04;;;;;;;;;;;19.20;59.10;;;;;;5040375;28;19947;-59
2023/12/17 03:07:30;;;;;;;;;;;19.20;59.10;;;;;;5056695;28;19920;-59
2023/12/17 03:09:55;;;;;;;;;;;19.20;59.10;;;;;;5056273;28;20308;-59
2023/12/17 03:12:21;;;;;;;;;;;19.20;59.10;;;;;;5075365;28;19925;-59
2023/12/17 03:14:46;;;;;;;;;;;19.20;59.10;;;;;;5074822;28;19924;-59
2023/12/17 03:17:12;;;;;;;;;;;19.10;59.00;;;;;;5074009;28;19929;-59
2023/12/17 03:19:37;;;;;;;;;;;19.20;59.10;;;;;;5074434;28;19932;-59
2023/12/17 03:22:03;;;;;;;;;;;19.20;59.10;;;;;;5055575;28;19921;-59
2023/12/17 03:24:28;;;;;;;;;;;19.10;59.00;;;;;;5055466;28;19931;-59
2023/12/17 03:26:53;;;;;;;;;;;19.10;59.00;;;;;;5056132;28;19925;-59
2023/12/17 03:29:19;;;;;;;;;;;19.10;59.00;;;;;;5074563;28;19925;-59
2023/12/17 03:31:45;;;;;;;;;;;19.20;59.00;;;;;;5055900;28;19935;-59
2023/12/17 03:34:10;;;;;;;;;;;19.10;59.00;;;;;;5056059;28;19924;-59
2023/12/17 03:36:36;;;;;;;;;;;19.10;59.00;;;;;;5056107;28;19935;-59
2023/12/17 03:39:03;;;;;;;;;;;19.10;59.00;;;;;;5074786;28;19928;-60
2023/12/17 03:41:28;;;;;;;;;;;19.10;59.00;;;;;;5056814;28;19920;-59
2023/12/17 03:43:56;;;;;;;;;;;19.10;59.00;;;;;;5073634;28;19932;-59
2023/12/17 03:46:22;;;;;;;;;;;19.10;59.00;;;;;;5074633;28;19935;-60
2023/12/17 03:48:48;;;;;;;;;;;19.10;59.00;;;;;;5056183;28;19924;-59
2023/12/17 03:51:13;;;;;;;;;;;19.10;59.10;;;;;;5073466;28;19976;-59
2023/12/17 03:53:39;;;;;;;;;;;19.10;59.00;;;;;;5074429;28;20004;-60
2023/12/17 03:56:14;;;;;;;;;;;19.10;59.00;;;;;;5074049;28;19924;-59
2023/12/17 03:58:40;;;;;;;;;;;19.10;59.00;;;;;;5073804;28;19924;-60
2023/12/17 04:01:06;;;;;;;;;;;19.10;59.00;;;;;;5055993;28;19950;-59
2023/12/17 04:03:31;;;;;;;;;;;19.10;59.00;;;;;;5073567;28;19924;-59
2023/12/17 04:06:00;;;;;;;;;;;19.10;58.90;;;;;;5073289;28;19924;-60
2023/12/17 04:08:25;;;;;;;;;;;19.10;58.90;;;;;;5074253;28;19932;-60
2023/12/17 04:10:51;;;;;;;;;;;19.20;59.00;;;;;;5055640;28;19970;-60
2023/12/17 04:13:17;;;;;;;;;;;19.20;59.00;;;;;;5073463;28;19977;-60
2023/12/17 04:15:43;;;;;;;;;;;19.20;59.00;;;;;;5066571;28;19928;-59
2023/12/17 04:18:08;;;;;;;;;;;19.20;58.90;;;;;;5064708;28;19924;-59
2023/12/17 04:20:33;;;;;;;;;;;19.20;58.90;;;;;;5036057;28;20354;-59
2023/12/17 04:22:59;;;;;;;;;;;19.20;58.90;;;;;;5053548;28;19967;-60
2023/12/17 04:25:25;;;;;;;;;;;19.20;58.90;;;;;;5038337;28;20426;-60
2023/12/17 04:27:51;;;;;;;;;;;19.20;58.90;;;;;;5072917;28;19925;-60
2023/12/17 04:30:16;;;;;;;;;;;19.20;58.80;;;;;;5073571;28;19924;-60
2023/12/17 04:32:42;;;;;;;;;;;19.20;58.80;;;;;;5072917;28;19973;-60
2023/12/17 04:35:07;;;;;;;;;;;19.30;58.80;;;;;;5054066;28;19956;-60
2023/12/17 04:37:33;;;;;;;;;;;19.30;58.80;;;;;;5073166;28;19931;-60
2023/12/17 04:39:58;;;;;;;;;;;19.30;58.80;;;;;;5055046;28;20019;-60
2023/12/17 04:42:24;;;;;;;;;;;19.30;58.80;;;;;;5055402;28;20277;-60
2023/12/17 04:44:49;;;;;;;;;;;19.30;58.80;;;;;;5055499;28;20077;-59
2023/12/17 04:47:15;;;;;;;;;;;19.30;58.70;;;;;;5071470;28;20011;-59
2023/12/17 04:49:40;;;;;;;;;;;19.30;58.70;;;;;;5072942;28;20391;-59
2023/12/17 04:52:06;;;;;;;;;;;19.40;58.80;;;;;;5073154;28;19931;-59
2023/12/17 04:54:31;;;;;;;;;;;19.40;58.80;;;;;;5072697;28;20396;-59
2023/12/17 04:56:57;;;;;;;;;;;19.40;58.80;;;;;;5073198;28;19920;-59
2023/12/17 04:59:23;;;;;;;;;;;19.40;58.80;;;;;;5073156;28;20340;-60
2023/12/17 05:01:48;;;;;;;;;;;19.40;58.70;;;;;;5065911;28;19921;-60
2023/12/17 05:04:14;;;;;;;;;;;19.50;58.80;;;;;;5067803;28;20382;-60
2023/12/17 05:06:40;;;;;;;;;;;19.50;58.70;;;;;;5072405;28;19924;-59
2023/12/17 05:09:05;;;;;;;;;;;19.50;58.80;;;;;;5071986;28;19933;-60
2023/12/17 05:11:31;;;;;;;;;;;19.50;58.70;;;;;;5072574;28;19928;-59
2023/12/17 05:13:56;;;;;;;;;;;19.50;58.70;;;;;;5054597;28;20106;-59
2023/12/17 05:16:22;;;;;;;;;;;19.50;58.70;;;;;;5054446;28;19933;-59
2023/12/17 05:18:47;;;;;;;;;;;19.60;58.70;;;;;;5072548;28;19974;-60
2023/12/17 05:21:13;;;;;;;;;;;19.50;58.60;;;;;;5072587;28;19924;-60
2023/12/17 05:23:38;;;;;;;;;;;19.50;58.60;;;;;;5054315;28;19924;-59
2023/12/17 05:26:04;;;;;;;;;;;19.50;58.60;;;;;;5072200;28;19931;-61
2023/12/17 05:28:29;;;;;;;;;;;19.50;58.50;;;;;;5072891;28;19924;-60
2023/12/17 05:30:55;;;;;;;;;;;19.50;58.50;;;;;;5053650;28;19978;-60
2023/12/17 05:33:20;;;;;;;;;;;19.60;58.60;;;;;;5072770;28;19942;-59
2023/12/17 05:35:46;;;;;;;;;;;19.60;58.60;;;;;;5072526;28;19928;-59
2023/12/17 05:38:11;;;;;;;;;;;19.60;58.60;;;;;;5053783;28;19928;-59
2023/12/17 05:40:37;;;;;;;;;;;19.60;58.50;;;;;;5073026;28;19920;-59
2023/12/17 05:43:03;;;;;;;;;;;19.60;58.50;;;;;;5071808;28;20022;-59
2023/12/17 05:45:30;;;;;;;;;;;19.60;58.50;;;;;;5072677;28;19932;-59
2023/12/17 05:47:56;;;;;;;;;;;19.70;58.60;;;;;;5071835;28;19924;-59
2023/12/17 05:50:22;;;;;;;;;;;19.60;58.50;;;;;;5071870;28;20081;-60
2023/12/17 05:52:48;;;;;;;;;;;19.60;58.50;;;;;;5072744;28;19924;-60
2023/12/17 05:55:14;;;;;;;;;;;19.60;58.50;;;;;;5054708;28;19925;-59
2023/12/17 05:57:41;;;;;;;;;;;19.70;58.50;;;;;;5071559;28;20011;-59
2023/12/17 06:00:08;;;;;;;;;;;19.70;58.50;;;;;;5072082;28;20383;-59
2023/12/17 06:02:34;;;;;;;;;;;19.70;58.50;;;;;;5071270;28;20341;-59
2023/12/17 06:04:59;;;;;;;;;;;19.70;58.40;;;;;;5071392;28;19924;-59
2023/12/17 06:07:25;;;;;;;;;;;19.70;58.40;;;;;;5054406;28;19920;-59
2023/12/17 06:09:51;;;;;;;;;;;19.70;58.40;;;;;;5072376;28;19924;-60
2023/12/17 06:12:17;;;;;;;;;;;19.70;58.40;;;;;;5071383;28;20015;-59
2023/12/17 06:14:42;;;;;;;;;;;19.70;58.40;;;;;;5072624;28;19974;-59
2023/12/17 06:17:07;;;;;;;;;;;19.70;58.40;;;;;;5054017;28;19932;-60
2023/12/17 06:19:33;;;;;;;;;;;19.70;58.40;;;;;;5053480;28;20015;-59
2023/12/17 06:22:01;;;;;;;;;;;19.70;58.40;;;;;;5071659;28;19950;-59
2023/12/17 06:24:26;;;;;;;;;;;19.70;58.30;;;;;;5054808;28;19924;-59
2023/12/17 06:26:53;;;;;;;;;;;19.70;58.30;;;;;;5074804;28;19925;-59
2023/12/17 06:29:19;;;;;;;;;;;19.70;58.20;;;;;;5057868;28;20397;-60
2023/12/17 06:31:44;;;;;;;;;;;19.80;58.30;;;;;;5075903;28;19986;-59
2023/12/17 06:34:10;;;;;;;;;;;19.80;58.30;;;;;;5056769;28;19924;-59
2023/12/17 06:36:35;;;;;;;;;;;19.80;58.30;;;;;;5057641;28;19925;-60
2023/12/17 06:39:01;;;;;;;;;;;19.80;58.30;;;;;;5074677;28;19928;-60
2023/12/17 06:41:26;;;;;;;;;;;19.80;58.20;;;;;;5073767;28;19932;-59
2023/12/17 06:43:52;;;;;;;;;;;19.80;58.20;;;;;;5057572;28;19928;-59
2023/12/17 06:46:17;;;;;;;;;;;19.80;58.30;;;;;;5057578;28;20291;-60
2023/12/17 06:48:43;;;;;;;;;;;19.80;58.20;;;;;;5074571;28;19924;-60
2023/12/17 06:51:08;;;;;;;;;;;19.80;58.20;;;;;;5075296;28;19924;-60
2023/12/17 06:53:34;;;;;;;;;;;19.80;58.20;;;;;;5074745;28;19993;-59
2023/12/17 06:56:00;;;;;;;;;;;19.80;58.20;;;;;;5075616;28;19924;-59
2023/12/17 06:58:25;;;;;;;;;;;19.80;58.10;;;;;;5075368;28;20019;-60
2023/12/17 07:00:51;;;;;;;;;;;19.80;58.10;;;;;;5057260;28;19925;-60
2023/12/17 07:03:20;;;;;;;;;;;19.80;58.20;;;;;;5074874;28;20291;-59
2023/12/17 07:05:45;;;;;;;;;;;19.80;58.10;;;;;;5075277;28;20733;-59
2023/12/17 07:08:11;;;;;;;;;;;19.80;58.10;;;;;;5056000;28;19928;-58
2023/12/17 07:10:36;;;;;;;;;;;19.80;58.10;;;;;;5075153;28;20388;-58
2023/12/17 07:13:03;;;;;;;;;;;19.80;58.10;;;;;;5056917;28;19928;-59
2023/12/17 07:15:29;;;;;;;;;;;19.90;58.10;;;;;;5056291;28;20035;-58
2023/12/17 07:17:55;;;;;;;;;;;19.90;58.20;;;;;;5047994;28;20428;-59
2023/12/17 07:20:20;;;;;;;;;;;19.90;58.40;;;;;;5063944;28;19925;-58
2023/12/17 07:22:47;;;;;;;;;;;19.90;58.40;;;;;;5071175;28;19925;-58
2023/12/17 07:25:13;;;;;;;;;;;19.90;58.60;;;;;;5056992;28;20376;-58
2023/12/17 07:27:38;;;;;;;;;;;19.90;58.60;;;;;;5068338;28;19978;-58
2023/12/17 07:30:04;;;;;;;;;;;19.90;58.60;;;;;;5074055;28;20336;-57
2023/12/17 07:32:30;;;;;;;;;;;19.90;58.60;;;;;;5074569;28;19977;-57
2023/12/17 07:34:55;;;;;;;;;;;19.90;58.60;;;;;;5074722;28;19928;-57
2023/12/17 07:37:21;;;;;;;;;;;19.90;58.60;;;;;;5073043;28;19947;-57
2023/12/17 07:39:46;;;;;;;;;;;19.90;58.70;;;;;;5075053;28;20356;-57
2023/12/17 07:42:12;;;;;;;;;;;19.90;58.70;;;;;;5056592;28;20023;-58
2023/12/17 07:44:37;;;;;;;;;;;20.00;58.90;;;;;;5074043;28;20357;-57
2023/12/17 07:47:03;;;;;;;;;;;20.00;58.80;;;;;;5074462;28;20014;-57
2023/12/17 07:49:28;;;;;;;;;;;20.00;58.90;;;;;;5074726;28;20011;-58
2023/12/17 07:51:54;;;;;;;;;;;20.00;58.90;;;;;;5046972;28;20393;-58
2023/12/17 07:54:19;;;;;;;;;;;20.00;58.90;;;;;;5062857;28;19924;-58
2023/12/17 07:56:45;;;;;;;;;;;20.00;59.00;;;;;;5063996;28;20425;-58
2023/12/17 07:59:10;;;;;;;;;;;20.00;59.00;;;;;;5062230;28;19931;-58
2023/12/17 08:01:36;;;;;;;;;;;20.00;59.00;;;;;;5065164;28;19936;-58
2023/12/17 08:04:01;;;;;;;;;;;20.00;59.00;;;;;;5061794;28;19960;-57
2023/12/17 08:06:27;;;;;;;;;;;20.00;59.10;;;;;;5068642;28;20261;-58
2023/12/17 08:08:53;;;;;;;;;;;20.00;59.10;;;;;;5074069;28;19924;-58
2023/12/17 08:11:19;;;;;;;;;;;20.10;59.20;;;;;;5073250;28;19924;-58
2023/12/17 08:13:44;;;;;;;;;;;20.10;59.20;;;;;;5073923;28;19928;-58
2023/12/17 08:16:09;;;;;;;;;;;20.10;59.20;;;;;;5055681;28;19939;-59
2023/12/17 08:18:35;;;;;;;;;;;20.10;59.20;;;;;;5073319;28;19924;-59
2023/12/17 08:21:01;;;;;;;;;;;20.10;59.10;;;;;;5073593;28;19921;-59
2023/12/17 08:23:27;;;;;;;;;;;20.10;59.00;;;;;;5055862;28;19924;-58
2023/12/17 08:25:52;;;;;;;;;;;20.10;59.00;;;;;;5060060;28;19936;-58
2023/12/17 08:28:19;;;;;;;;;;;20.10;59.20;;;;;;5066029;28;19977;-58
2023/12/17 08:30:44;;;;;;;;;;;20.10;59.20;;;;;;5073925;28;20013;-58
2023/12/17 08:33:10;;;;;;;;;;;20.10;59.30;;;;;;5072508;28;20383;-58
2023/12/17 08:35:37;;;;;;;;;;;20.10;59.30;;;;;;5071448;28;19930;-58
2023/12/17 08:38:05;;;;;;;;;;;20.10;59.30;;;;;;5073183;28;20384;-58
2023/12/17 08:40:37;;;;;;;;;;;20.10;59.30;;;;;;5054116;28;19921;-58
2023/12/17 08:43:12;;;;;;;;;;;20.10;59.30;;;;;;5073460;28;19986;-58
2023/12/17 08:45:37;;;;;;;;;;;20.20;59.20;;;;;;5064023;28;20396;-59
2023/12/17 08:48:03;;;;;;;;;;;20.20;59.20;;;;;;5071692;28;19954;-59
2023/12/17 08:50:28;;;;;;;;;;;20.10;59.10;;;;;;5072237;28;19931;-58
2023/12/17 08:52:54;;;;;;;;;;;20.10;59.00;;;;;;5072961;28;19925;-58
2023/12/17 08:55:19;;;;;;;;;;;20.10;58.90;;;;;;5072942;28;19931;-58
2023/12/17 08:57:46;;;;;;;;;;;20.10;58.90;;;;;;5073487;28;19924;-59
2023/12/17 09:00:12;;;;;;;;;;;20.10;58.80;;;;;;5072377;28;20920;-58
2023/12/17 09:02:37;;;;;;;;;;;20.10;58.80;;;;;;5072118;28;19925;-58
2023/12/17 09:05:03;;;;;;;;;;;20.10;58.80;;;;;;5072858;28;19932;-59
2023/12/17 09:07:28;;;;;;;;;;;20.10;58.80;;;;;;5072144;28;20379;-58
2023/12/17 09:09:54;;;;;;;;;;;20.10;58.70;;;;;;5072850;28;19924;-59
2023/12/17 09:12:19;;;;;;;;;;;20.10;58.70;;;;;;5073468;28;20361;-59
2023/12/17 09:14:45;;;;;;;;;;;20.10;58.70;;;;;;5072680;28;19924;-58
2023/12/17 09:17:10;;;;;;;;;;;20.10;58.70;;;;;;5054956;28;19932;-59
2023/12/17 09:19:36;;;;;;;;;;;20.10;58.70;;;;;;5070158;28;19967;-58
2023/12/17 09:22:01;;;;;;;;;;;20.10;58.70;;;;;;5052322;28;19925;-59
2023/12/17 09:24:27;;;;;;;;;;;20.10;58.70;;;;;;5044388;28;19924;-59
2023/12/17 09:26:52;;;;;;;;;;;20.10;58.80;;;;;;5054788;28;19924;-59
2023/12/17 09:29:18;;;;;;;;;;;20.10;58.70;;;;;;5072016;28;19924;-59
2023/12/17 09:31:43;;;;;;;;;;;20.10;58.70;;;;;;5073137;28;19924;-59
2023/12/17 09:34:09;;;;;;;;;;;20.10;58.70;;;;;;5054837;28;20299;-60
2023/12/17 09:36:34;;;;;;;;;;;20.10;58.80;;;;;;5054554;28;19924;-61
2023/12/17 09:39:00;;;;;;;;;;;20.10;58.90;;;;;;5062214;28;19925;-60
2023/12/17 09:41:25;;;;;;;;;;;20.10;59.00;;;;;;5035374;28;20288;-60
2023/12/17 09:43:51;;;;;;;;;;;20.10;59.20;;;;;;5034190;28;19951;-62
2023/12/17 09:46:17;;;;;;;;;;;20.10;59.40;;;;;;5018906;28;19925;-63
2023/12/17 09:48:43;;;;;;;;;;;20.10;59.30;;;;;;5034864;28;19924;-63
2023/12/17 09:51:10;;;;;;;;;;;20.10;59.30;;;;;;5033870;28;19925;-62
2023/12/17 09:53:35;;;;;;;;;;;20.10;59.30;;;;;;5018429;28;19932;-62
2023/12/17 09:56:01;;;;;;;;;;;20.10;59.40;;;;;;5034946;28;19925;-61
2023/12/17 09:58:26;;;;;;;;;;;20.10;59.30;;;;;;5052576;28;20011;-61
2023/12/17 10:00:52;;;;;;;;;;;20.10;59.60;;;;;;5037740;28;19920;-63
2023/12/17 10:03:18;;;;;;;;;;;20.10;59.60;;;;;;5038305;28;20303;-58
2023/12/17 10:05:49;;;;;;;;;;;20.10;60.20;;;;;;5056372;28;19928;-58
2023/12/17 10:08:15;;;;;;;;;;;20.10;60.20;;;;;;5060180;28;20299;-57
2023/12/17 10:10:41;;;;;;;;;;;20.10;60.20;;;;;;5075978;28;20390;-58
2023/12/17 10:13:07;;;;;;;;;;;20.20;60.20;;;;;;5054063;28;19925;-58
2023/12/17 10:15:36;;;;;;;;;;;20.20;60.20;;;;;;5056782;28;19987;-58
2023/12/17 10:18:02;;;;;;;;;;;20.20;60.10;;;;;;5060073;28;19925;-58
2023/12/17 10:20:28;;;;;;;;;;;20.10;60.10;;;;;;5055764;28;20464;-57
2023/12/17 10:22:58;;;;;;;;;;;20.20;60.30;;;;;;5043633;28;19973;-57
2023/12/17 10:25:23;;;;;;;;;;;20.10;60.40;;;;;;5075210;28;19932;-61
2023/12/17 10:27:49;;;;;;;;;;;20.10;60.50;;;;;;5075797;28;20070;-58
2023/12/17 10:30:14;;;;;;;;;;;20.10;60.50;;;;;;5057230;28;19924;-58
2023/12/17 10:32:43;;;;;;;;;;;20.10;60.60;;;;;;5040938;28;20041;-57
2023/12/17 10:35:08;;;;;;;;;;;20.10;60.70;;;;;;5058332;28;19928;-57
2023/12/17 10:37:34;;;;;;;;;;;20.10;60.70;;;;;;5057708;28;19928;-57
2023/12/17 10:39:59;;;;;;;;;;;20.10;60.80;;;;;;5075032;28;19924;-57
2023/12/17 10:42:25;;;;;;;;;;;20.10;60.80;;;;;;5075339;28;19925;-57
2023/12/17 10:44:50;;;;;;;;;;;20.10;61.00;;;;;;5053267;28;19975;-58
2023/12/17 10:47:17;;;;;;;;;;;20.10;60.90;;;;;;5031027;28;19925;-58
2023/12/17 10:49:42;;;;;;;;;;;20.10;61.00;;;;;;5065686;28;19931;-58
2023/12/17 10:52:08;;;;;;;;;;;20.10;61.00;;;;;;5047501;28;19928;-57
2023/12/17 10:54:33;;;;;;;;;;;20.10;61.20;;;;;;5043324;28;19924;-57
2023/12/17 10:56:59;;;;;;;;;;;20.10;61.20;;;;;;5062061;28;19929;-57
2023/12/17 10:59:26;;;;;;;;;;;20.10;61.00;;;;;;5048553;28;19925;-56
2023/12/17 11:01:55;;;;;;;;;;;20.10;61.20;;;;;;5063087;28;19924;-59
2023/12/17 11:04:21;;;;;;;;;;;20.10;61.20;;;;;;5046314;28;19970;-56
2023/12/17 11:06:46;;;;;;;;;;;20.10;61.10;;;;;;5047138;28;19978;-56
2023/12/17 11:09:13;;;;;;;;;;;20.00;61.20;;;;;;5062313;28;19924;-56
2023/12/17 11:11:40;;;;;;;;;;;20.00;61.10;;;;;;5036089;28;19983;-57
2023/12/17 11:14:05;;;;;;;;;;;20.10;61.20;;;;;;5066746;28;20372;-56
2023/12/17 11:16:31;;;;;;;;;;;20.00;61.20;;;;;;5057351;28;19982;-57
2023/12/17 11:19:00;;;;;;;;;;;20.00;61.10;;;;;;5036869;28;19925;-57
2023/12/17 11:21:27;;;;;;;;;;;20.00;61.80;;;;;;5058419;28;19990;-57
2023/12/17 11:23:52;;;;;;;;;;;20.00;61.20;;;;;;5074673;28;20325;-57
2023/12/17 11:26:18;;;;;;;;;;;20.00;61.20;;;;;;5075063;28;19928;-57
2023/12/17 11:28:44;;;;;;;;;;;20.00;61.10;;;;;;5067896;28;19929;-58
2023/12/17 11:31:10;;;;;;;;;;;20.00;61.00;;;;;;5054206;28;20023;-57
2023/12/17 11:33:36;;;;;;;;;;;20.00;61.00;;;;;;5035718;28;19925;-58
2023/12/17 11:36:02;;;;;;;;;;;20.00;61.00;;;;;;5036019;28;19925;-58
2023/12/17 11:38:27;;;;;;;;;;;20.00;61.00;;;;;;5020539;28;20316;-58
2023/12/17 11:40:53;;;;;;;;;;;20.00;61.00;;;;;;5020530;28;19983;-57
2023/12/17 11:43:23;;;;;;;;;;;20.00;61.00;;;;;;5054281;28;20304;-58
2023/12/17 11:45:49;;;;;;;;;;;20.00;61.10;;;;;;5054893;28;19924;-57
2023/12/17 11:48:15;;;;;;;;;;;20.00;61.00;;;;;;5054458;28;19979;-57
2023/12/17 11:50:50;;;;;;;;;;;19.90;61.00;;;;;;5036213;28;20309;-57
2023/12/17 11:53:16;;;;;;;;;;;20.00;61.00;;;;;;5054501;28;19929;-57
2023/12/17 11:55:45;;;;;;;;;;;19.90;60.90;;;;;;5054457;28;19933;-58
2023/12/17 11:58:11;;;;;;;;;;;19.90;60.90;;;;;;5053522;28;20020;-58
2023/12/17 12:00:36;;;;;;;;;;;19.90;60.80;;;;;;5036480;28;20007;-57
2023/12/17 12:03:02;;;;;;;;;;;19.90;60.80;;;;;;5053459;28;19925;-58
2023/12/17 12:05:28;;;;;;;;;;;19.90;60.70;;;;;;5035674;28;19967;-57
2023/12/17 12:07:54;;;;;;;;;;;19.90;60.70;;;;;;5062683;28;19963;-58
2023/12/17 12:10:19;;;;;;;;;;;19.90;60.90;;;;;;5040414;28;19964;-58
2023/12/17 12:12:45;;;;;;;;;;;19.90;60.90;;;;;;5058413;28;19990;-57
2023/12/17 12:15:10;;;;;;;;;;;19.90;60.90;;;;;;5063134;28;19940;-57
2023/12/17 12:17:38;;;;;;;;;;;19.90;60.90;;;;;;5061373;28;19925;-58
2023/12/17 12:20:07;;;;;;;;;;;19.90;61.00;;;;;;5062874;28;20007;-58
2023/12/17 12:22:32;;;;;;;;;;;19.90;61.00;;;;;;5039189;28;19967;-58
2023/12/17 12:24:58;;;;;;;;;;;19.90;61.10;;;;;;5056859;28;19956;-58
2023/12/17 12:27:23;;;;;;;;;;;19.90;61.00;;;;;;5060714;28;19940;-58
2023/12/17 12:29:51;;;;;;;;;;;19.90;61.10;;;;;;5040889;28;19925;-58
2023/12/17 12:32:29;;;;;;;;;;;19.90;61.10;;;;;;5059092;28;19921;-58
2023/12/17 12:34:55;;;;;;;;;;;19.90;61.10;;;;;;5058904;28;19928;-58
2023/12/17 12:37:33;;;;;;;;;;;19.90;61.10;;;;;;5042354;28;20367;-59
2023/12/17 12:39:59;;;;;;;;;;;20.00;61.10;;;;;;5056351;28;19932;-58
2023/12/17 12:42:25;;;;;;;;;;;20.00;61.20;;;;;;5057547;28;19964;-59
2023/12/17 12:44:50;;;;;;;;;;;20.00;61.10;;;;;;5038100;28;19982;-58
2023/12/17 12:47:16;;;;;;;;;;;20.00;61.10;;;;;;5061979;28;19928;-58
2023/12/17 12:49:42;;;;;;;;;;;20.00;61.10;;;;;;5059494;28;19928;-57
2023/12/17 12:52:07;;;;;;;;;;;20.00;61.10;;;;;;5059854;28;20291;-58
2023/12/17 12:54:33;;;;;;;;;;;20.10;61.10;;;;;;5054982;28;19982;-57
2023/12/17 12:56:58;;;;;;;;;;;20.10;61.10;;;;;;5059472;28;19959;-57
2023/12/17 12:59:23;;;;;;;;;;;20.10;61.00;;;;;;5056550;28;20470;-58
2023/12/17 13:01:49;;;;;;;;;;;20.10;61.00;;;;;;5039204;28;19927;-58
2023/12/17 13:04:15;;;;;;;;;;;20.10;61.00;;;;;;5058606;28;19971;-58
2023/12/17 13:06:40;;;;;;;;;;;20.10;61.00;;;;;;5040306;28;19924;-58
2023/12/17 13:09:07;;;;;;;;;;;20.20;61.00;;;;;;5063445;28;20011;-58
2023/12/17 13:11:33;;;;;;;;;;;20.20;61.00;;;;;;5061188;28;19928;-58
2023/12/17 13:13:59;;;;;;;;;;;20.20;60.90;;;;;;5057835;28;19924;-58
2023/12/17 13:16:24;;;;;;;;;;;20.20;60.90;;;;;;5056389;28;20292;-58
2023/12/17 13:18:50;;;;;;;;;;;20.20;60.90;;;;;;5063741;28;19932;-58
2023/12/17 13:21:15;;;;;;;;;;;20.20;60.90;;;;;;5056625;28;20384;-57
2023/12/17 13:23:41;;;;;;;;;;;20.20;60.80;;;;;;5058463;28;19925;-59
2023/12/17 13:26:07;;;;;;;;;;;20.20;60.80;;;;;;5065308;28;20360;-58
2023/12/17 13:28:32;;;;;;;;;;;20.20;60.70;;;;;;5071812;28;20054;-58
2023/12/17 13:31:03;;;;;;;;;;;20.30;60.80;;;;;;5072640;28;19978;-58
2023/12/17 13:33:28;;;;;;;;;;;20.30;60.70;;;;;;5073285;28;19985;-58
2023/12/17 13:35:54;;;;;;;;;;;20.40;60.90;;;;;;5053725;28;19933;-58
2023/12/17 13:38:19;;;;;;;;;;;20.40;61.00;;;;;;5073311;28;19924;-58
2023/12/17 13:40:49;;;;;;;;;;;20.40;61.00;;;;;;5072789;28;19986;-59
2023/12/17 13:43:14;;;;;;;;;;;20.50;61.20;;;;;;5072078;28;20005;-58
2023/12/17 13:45:40;;;;;;;;;;;20.50;61.10;;;;;;5072759;28;19982;-57
2023/12/17 13:48:05;;;;;;;;;;;20.50;61.10;;;;;;5072893;28;20326;-58
2023/12/17 13:50:31;;;;;;;;;;;20.50;61.10;;;;;;5072074;28;19932;-58
2023/12/17 13:52:57;;;;;;;;;;;20.60;61.20;;;;;;5072575;28;20007;-58
2023/12/17 13:55:24;;;;;;;;;;;20.60;61.20;;;;;;5054140;28;20387;-58
2023/12/17 13:57:49;;;;;;;;;;;20.60;61.10;;;;;;5054849;28;19928;-58
2023/12/17 14:00:15;;;;;;;;;;;20.60;61.10;;;;;;5072745;28;20023;-58
2023/12/17 14:02:40;;;;;;;;;;;20.60;61.20;;;;;;5072218;28;19924;-58
2023/12/17 14:05:06;;;;;;;;;;;20.60;61.20;;;;;;5072391;28;19978;-58
2023/12/17 14:07:31;;;;;;;;;;;20.70;61.30;;;;;;5053422;28;20015;-58